Time;durP1;ratioP1;P1;durP2;ratioP2;P2;SDS_P1;SDS_P2;PMS_P1;PMS_P2;Temp;Humidity;BMP_temperature;BMP_pressure;BME280_temperature;BME280_humidity;BME280_pressure;Samples;Min_cycle;Max_cycle;Signal;HPM_P1;HPM_P2
2022/06/21 00:00:05;;;;;;;10.68;4.03;;;;;;;23.78;37.53;101528.75;5075444;28;20027;-81
2022/06/21 00:02:32;;;;;;;8.60;4.45;;;;;;;23.78;37.73;101539.13;5074173;28;20028;-81
2022/06/21 00:04:58;;;;;;;8.45;4.68;;;;;;;23.76;37.74;101539.50;5074135;28;20502;-81
2022/06/21 00:07:28;;;;;;;10.77;4.30;;;;;;;23.76;37.82;101545.09;5074062;28;20036;-81
2022/06/21 00:09:54;;;;;;;14.20;4.38;;;;;;;23.76;37.51;101541.50;5074019;28;20036;-81
2022/06/21 00:12:21;;;;;;;10.43;4.60;;;;;;;23.76;37.95;101535.91;5075229;28;20025;-80
2022/06/21 00:14:47;;;;;;;9.80;3.55;;;;;;;23.71;37.57;101525.88;5075143;28;20025;-81
2022/06/21 00:17:15;;;;;;;7.60;4.15;;;;;;;23.67;37.93;101522.28;5075122;28;20039;-84
2022/06/21 00:19:43;;;;;;;8.15;3.80;;;;;;;23.61;38.02;101526.59;5073903;28;20017;-81
2022/06/21 00:22:14;;;;;;;8.15;3.92;;;;;;;23.65;37.56;101523.81;5075116;28;20165;-81
2022/06/21 00:24:40;;;;;;;12.02;5.07;;;;;;;23.64;37.80;101522.22;5073723;28;20483;-81
2022/06/21 00:27:19;;;;;;;7.70;3.72;;;;;;;23.62;37.85;101533.78;5073724;28;20028;-81
2022/06/21 00:29:45;;;;;;;8.73;4.17;;;;;;;23.60;38.00;101519.41;5074033;28;20089;-81
2022/06/21 00:32:13;;;;;;;9.43;4.38;;;;;;;23.61;37.93;101518.22;5073733;28;20269;-82
2022/06/21 00:34:40;;;;;;;9.75;4.97;;;;;;;23.60;37.94;101519.41;5073658;28;20180;-81
2022/06/21 00:37:12;;;;;;;7.40;4.05;;;;;;;23.59;37.88;101508.63;5073599;28;20029;-83
2022/06/21 00:39:38;;;;;;;8.13;4.18;;;;;;;23.59;37.73;101506.63;5074757;28;20483;-82
2022/06/21 00:42:18;;;;;;;6.32;4.05;;;;;;;23.54;38.32;101507.75;5074818;28;20031;-81
2022/06/21 00:44:47;;;;;;;;;;;;;;;23.57;37.75;101503.41;5073724;28;20053;-82
2022/06/21 00:47:30;;;;;;;10.48;4.43;;;;;;;23.62;38.07;101511.47;5074722;28;19935;-82
2022/06/21 00:50:09;;;;;;;10.05;4.18;;;;;;;23.57;38.14;101494.22;5074653;28;20029;-82
2022/06/21 00:52:42;;;;;;;8.00;3.78;;;;;;;23.60;38.08;101485.94;5074637;28;20029;-81
2022/06/21 00:55:36;;;;;;;6.90;3.20;;;;;;;23.60;38.14;101490.69;5073333;28;20504;-85
2022/06/21 00:58:02;;;;;;;9.32;3.90;;;;;;;23.66;38.11;101483.63;5071256;28;20039;-83
2022/06/21 01:00:45;;;;;;;7.50;3.83;;;;;;;23.62;38.20;101483.56;5073125;28;20056;-81
2022/06/21 01:03:20;;;;;;;10.32;3.97;;;;;;;23.60;38.40;101480.38;5074271;28;20029;-81
2022/06/21 01:05:46;;;;;;;10.18;4.20;;;;;;;23.38;38.49;101473.75;5074257;28;20082;-82
2022/06/21 01:08:19;;;;;;;8.15;4.15;;;;;;;23.34;38.29;101478.47;5072889;28;20442;-82
2022/06/21 01:10:48;;;;;;;11.88;3.90;;;;;;;23.32;38.62;101464.13;5073035;28;20171;-81
2022/06/21 01:13:17;;;;;;;10.50;4.30;;;;;;;23.32;38.54;101463.31;5074179;28;20375;-81
2022/06/21 01:15:45;;;;;;;7.97;4.47;;;;;;;23.23;38.89;101467.22;5074365;28;20272;-82
2022/06/21 01:18:14;;;;;;;9.32;4.05;;;;;;;23.17;38.82;101468.72;5072734;28;20040;-81
2022/06/21 01:20:44;;;;;;;10.15;3.75;;;;;;;23.20;38.69;101461.59;5073837;28;20059;-85
2022/06/21 01:24:08;;;;;;;8.38;3.80;;;;;;;23.09;39.33;101460.69;5073824;28;20040;-81
2022/06/21 01:26:53;;;;;;;8.13;3.80;;;;;;;23.10;38.86;101463.06;5015103;28;20041;-81
2022/06/21 01:29:22;;;;;;;13.13;4.28;;;;;;;23.10;38.79;101467.84;5015100;28;20033;-81
2022/06/21 01:31:49;;;;;;;7.20;4.10;;;;;;;23.11;38.88;101469.44;5057673;28;20090;-81
2022/06/21 01:34:20;;;;;;;10.57;4.53;;;;;;;23.08;39.14;101464.66;5072311;28;20115;-81
2022/06/21 01:36:48;;;;;;;7.63;3.55;;;;;;;22.98;38.99;101472.50;5072415;28;20100;-84
2022/06/21 01:39:21;;;;;;;8.00;3.58;;;;;;;22.91;39.21;101469.63;5073625;28;20081;-81
2022/06/21 01:41:54;;;;;;;6.93;3.65;;;;;;;22.90;39.02;101464.44;5073682;28;20023;-84
2022/06/21 01:44:26;;;;;;;7.40;3.63;;;;;;;22.93;38.93;101463.69;5073352;28;20097;-85
2022/06/21 01:46:53;;;;;;;7.63;4.70;;;;;;;22.92;39.32;101462.09;5073700;28;20025;-85
2022/06/21 01:49:23;;;;;;;8.43;4.38;;;;;;;22.85;39.28;101451.66;5071964;28;20031;-81
2022/06/21 01:51:58;;;;;;;9.10;4.10;;;;;;;22.82;39.11;101451.56;5073531;28;20090;-81
2022/06/21 01:54:28;;;;;;;10.93;3.90;;;;;;;22.82;39.31;101445.97;5072052;28;20021;-81
2022/06/21 01:56:54;;;;;;;6.38;4.00;;;;;;;22.77;39.34;101449.13;5073357;28;20487;-81
2022/06/21 01:59:26;;;;;;;10.60;3.90;;;;;;;22.73;39.55;101448.25;5073247;28;20056;-81
2022/06/21 02:02:05;;;;;;;10.35;3.67;;;;;;;22.64;39.77;101452.16;5072005;28;20494;-81
2022/06/21 02:04:40;;;;;;;10.07;4.85;;;;;;;22.61;39.67;101447.34;5073152;28;20391;-81
2022/06/21 02:07:13;;;;;;;9.50;4.05;;;;;;;22.62;39.91;101454.50;5071855;28;20505;-81
2022/06/21 02:09:46;;;;;;;9.02;4.05;;;;;;;22.63;39.77;101456.13;5071790;28;20024;-81
2022/06/21 02:12:13;;;;;;;10.07;4.90;;;;;;;22.65;39.65;101453.75;5071921;28;20032;-81
2022/06/21 02:14:48;;;;;;;9.38;3.65;;;;;;;22.62;40.16;101454.50;5071343;28;20025;-83
2022/06/21 02:17:25;;;;;;;9.07;4.45;;;;;;;22.64;40.19;101445.78;5071787;28;20037;-81
2022/06/21 02:20:19;;;;;;;8.02;3.75;;;;;;;22.66;40.37;101438.63;5071699;28;20111;-81
2022/06/21 02:22:45;;;;;;;9.50;3.88;;;;;;;22.71;39.89;101432.75;5072970;28;20028;-81
2022/06/21 02:25:23;;;;;;;10.63;3.88;;;;;;;22.67;40.29;101431.91;5072785;28;20062;-82
2022/06/21 02:27:50;;;;;;;5.35;3.30;;;;;;;22.69;40.00;101435.09;5071556;28;20028;-80
2022/06/21 02:30:26;;;;;;;8.57;4.30;;;;;;;22.72;40.09;101430.75;5072879;28;20024;-81
2022/06/21 02:32:53;;;;;;;8.32;3.30;;;;;;;22.68;40.30;101425.16;5072769;28;20089;-81
2022/06/21 02:35:40;;;;;;;9.13;3.80;;;;;;;22.76;40.23;101428.81;5071397;28;20036;-82
2022/06/21 02:38:13;;;;;;;5.50;2.97;;;;;;;22.73;40.34;101421.22;5071328;28;20074;-81
2022/06/21 02:40:52;;;;;;;9.38;4.43;;;;;;;22.86;39.96;101421.81;5071372;28;20453;-81
2022/06/21 02:43:26;;;;;;;10.13;3.85;;;;;;;22.87;39.97;101420.63;5072346;28;20489;-81
2022/06/21 02:45:59;;;;;;;7.15;3.83;;;;;;;22.92;39.89;101409.13;5071351;28;20044;-81
2022/06/21 02:48:29;;;;;;;6.03;3.47;;;;;;;23.00;39.74;101408.03;5071515;28;20036;-81
2022/06/21 02:51:10;;;;;;;6.68;3.30;;;;;;;23.03;39.98;101409.25;5071441;28;20028;-81
2022/06/21 02:53:42;;;;;;;8.90;3.40;;;;;;;23.01;40.05;101404.06;5071463;28;20033;-81
2022/06/21 02:56:29;;;;;;;10.75;3.80;;;;;;;22.97;39.96;101403.19;5071223;28;20502;-81
2022/06/21 02:59:01;;;;;;;8.13;3.83;;;;;;;22.87;40.36;101406.69;5072510;28;20085;-81
2022/06/21 03:01:34;;;;;;;7.13;3.20;;;;;;;22.80;40.61;101414.94;5071270;28;20043;-81
2022/06/21 03:04:00;;;;;;;8.63;3.78;;;;;;;22.91;40.32;101407.53;5071119;28;20402;-81
2022/06/21 03:06:30;;;;;;;7.32;3.38;;;;;;;22.70;40.33;101411.63;5072401;28;20029;-81
2022/06/21 03:09:08;;;;;;;9.55;3.25;;;;;;;22.76;40.29;101408.53;5071147;28;20068;-81
2022/06/21 03:11:41;;;;;;;12.45;3.55;;;;;;;22.61;40.68;101408.34;5072434;28;20027;-81
2022/06/21 03:14:14;;;;;;;9.23;3.55;;;;;;;22.66;40.53;101421.91;5071183;28;20047;-80
2022/06/21 03:16:42;;;;;;;8.52;3.38;;;;;;;22.66;40.46;101415.56;5071156;28;20556;-83
2022/06/21 03:19:18;;;;;;;11.65;3.85;;;;;;;22.65;40.37;101417.53;5072381;28;20027;-81
2022/06/21 03:21:44;;;;;;;9.73;3.85;;;;;;;22.66;40.37;101416.34;5072298;28;20021;-81
2022/06/21 03:24:17;;;;;;;9.43;3.78;;;;;;;22.62;40.54;101415.53;5072267;28;20032;-81
2022/06/21 03:26:50;;;;;;;13.18;3.67;;;;;;;22.66;40.30;101416.34;5073201;28;20055;-81
2022/06/21 03:29:16;;;;;;;8.23;3.10;;;;;;;22.68;40.55;101421.56;5076156;28;20021;-81
2022/06/21 03:31:48;;;;;;;7.18;3.38;;;;;;;22.70;40.61;101422.78;5076089;28;20103;-81
2022/06/21 03:34:17;;;;;;;8.18;3.90;;;;;;;22.73;40.47;101418.44;5076008;28;20028;-81
2022/06/21 03:36:43;;;;;;;11.80;4.03;;;;;;;22.78;40.23;101415.31;5074737;28;20032;-81
2022/06/21 03:39:13;;;;;;;15.57;4.40;;;;;;;22.76;40.79;101417.69;5075900;28;20047;-81
2022/06/21 03:41:46;;;;;;;;;;;;;;;22.84;40.61;101418.56;5076350;28;20029;-80
2022/06/21 03:44:23;;;;;;;14.18;4.38;;;;;;;22.86;40.86;101413.44;5074306;28;19923;-81
2022/06/21 03:47:14;;;;;;;8.25;3.92;;;;;;;22.93;40.69;101410.75;5075824;28;20035;-81
2022/06/21 03:49:45;;;;;;;13.85;4.10;;;;;;;22.99;40.39;101409.22;5075759;28;20052;-81
2022/06/21 03:52:44;;;;;;;10.27;3.72;;;;;;;22.88;41.01;101416.63;5075660;28;20024;-85
2022/06/21 03:55:24;;;;;;;9.20;4.00;;;;;;;22.98;40.64;101402.84;5075402;28;20051;-82
2022/06/21 03:58:07;;;;;;;8.75;3.65;;;;;;;22.88;40.87;101413.84;5075584;28;20114;-83
2022/06/21 04:00:46;;;;;;;6.75;3.92;;;;;;;22.92;40.76;101412.72;5074175;28;20032;-82
2022/06/21 04:03:31;;;;;;;10.35;3.80;;;;;;;22.91;41.37;101407.53;5075475;28;20020;-81
2022/06/21 04:06:20;;;;;;;10.45;3.95;;;;;;;22.97;41.47;101409.59;5075549;28;20020;-83
2022/06/21 04:09:12;;;;;;;8.65;3.75;;;;;;;22.89;41.09;101402.31;5075338;28;20380;-81
2022/06/21 04:11:56;;;;;;;12.07;4.38;;;;;;;22.93;41.64;101410.75;5075393;28;20481;-81
2022/06/21 04:14:44;;;;;;;11.45;4.35;;;;;;;22.94;41.16;101404.78;5074031;28;20028;-81
2022/06/21 04:17:18;;;;;;;18.77;4.38;;;;;;;23.05;41.38;101406.88;5073942;28;20024;-82
2022/06/21 04:19:56;;;;;;;13.15;4.13;;;;;;;23.02;41.70;101407.63;5073937;28;20106;-81
2022/06/21 04:22:43;;;;;;;10.95;3.92;;;;;;;23.03;41.46;101404.47;5073842;28;20024;-82
2022/06/21 04:25:14;;;;;;;11.05;4.38;;;;;;;23.04;41.60;101408.06;5073809;28;20364;-81
2022/06/21 04:28:12;;;;;;;12.70;4.53;;;;;;;23.01;41.74;101398.47;5075144;28;20040;-82
2022/06/21 04:30:49;;;;;;;9.65;4.38;;;;;;;23.13;41.70;101403.00;5051878;28;20083;-82
2022/06/21 04:33:20;;;;;;;10.63;3.78;;;;;;;22.95;42.38;101394.44;5055075;28;20548;-81
2022/06/21 04:36:01;;;;;;;13.20;4.75;;;;;;;23.19;41.88;101393.06;5053602;28;20029;-81
2022/06/21 04:39:18;;;;;;;10.25;4.07;;;;;;;23.04;42.54;101394.91;5052023;28;20494;-81
2022/06/21 04:41:51;;;;;;;8.77;3.75;;;;;;;23.06;42.51;101392.56;5015911;28;20415;-81
2022/06/21 04:44:31;;;;;;;23.10;5.25;;;;;;;23.08;42.17;101395.78;5053391;28;20049;-84
2022/06/21 04:47:04;;;;;;;13.57;4.40;;;;;;;23.05;42.77;101385.41;5054744;28;20028;-81
2022/06/21 04:49:36;;;;;;;11.82;4.10;;;;;;;23.17;42.47;101387.09;5054643;28;20025;-81
2022/06/21 04:52:09;;;;;;;11.38;3.92;;;;;;;23.29;42.36;101386.81;5053401;28;20032;-81
2022/06/21 04:54:37;;;;;;;14.63;4.93;;;;;;;23.31;42.25;101395.59;5053247;28;20025;-81
2022/06/21 04:57:19;;;;;;;7.20;3.92;;;;;;;23.25;42.86;101392.34;5054421;28;20035;-82
2022/06/21 05:00:05;;;;;;;7.20;3.88;;;;;;;23.23;43.16;101388.34;5054585;28;20031;-82
2022/06/21 05:02:47;;;;;;;10.95;4.68;;;;;;;23.32;42.79;101396.41;5053170;28;20025;-84
2022/06/21 05:05:19;;;;;;;9.13;4.32;;;;;;;23.22;43.09;101397.91;5054475;28;20025;-82
2022/06/21 05:07:52;;;;;;;9.93;3.85;;;;;;;23.31;43.00;101403.16;5053108;28;20021;-82
2022/06/21 05:10:25;;;;;;;12.02;4.22;;;;;;;23.32;43.03;101391.63;5069666;28;20032;-81
2022/06/21 05:12:53;;;;;;;9.23;3.70;;;;;;;23.38;42.66;101392.06;5052976;28;20024;-81
2022/06/21 05:15:26;;;;;;;12.50;3.40;;;;;;;23.55;42.47;101394.22;5054238;28;20031;-82
2022/06/21 05:18:19;;;;;;;26.27;5.72;;;;;;;23.41;43.43;101389.31;5054103;28;20387;-81
2022/06/21 05:20:52;;;;;;;11.88;4.05;;;;;;;22.92;45.09;101384.84;5054203;28;20017;-81
2022/06/21 05:23:21;;;;;;;7.93;3.63;;;;;;;22.87;45.00;101376.84;5069332;28;20029;-82
2022/06/21 05:25:48;;;;;;;7.53;3.50;;;;;;;22.86;45.22;101380.81;5052602;28;20055;-81
2022/06/21 05:28:29;;;;;;;11.95;3.80;;;;;;;23.32;44.72;101382.44;5052670;28;20029;-82
2022/06/21 05:30:57;;;;;;;8.13;3.90;;;;;;;23.19;44.56;101382.72;5052562;28;20021;-81
2022/06/21 05:33:34;;;;;;;11.07;4.40;;;;;;;23.35;44.28;101385.28;5052543;28;20036;-81
2022/06/21 05:36:06;;;;;;;9.48;3.65;;;;;;;23.29;44.59;101384.03;5053720;28;20082;-82
2022/06/21 05:38:35;;;;;;;9.80;4.45;;;;;;;23.31;44.82;101381.66;5053600;28;20074;-81
2022/06/21 05:41:29;;;;;;;12.95;3.88;;;;;;;23.34;44.97;101380.06;5052513;28;20021;-81
2022/06/21 05:44:00;;;;;;;10.90;4.75;;;;;;;23.30;45.56;101357.75;5052021;28;20124;-81
2022/06/21 05:46:28;;;;;;;;;;;;;;;23.35;45.08;101376.94;5052572;28;20036;-81
2022/06/21 05:48:57;;;;;;;14.57;4.88;;;;;;;23.34;45.09;101380.06;5068193;28;19917;-81
2022/06/21 05:51:26;;;;;;;18.30;5.63;;;;;;;23.16;45.51;101385.50;5053469;28;20586;-80
2022/06/21 05:54:06;;;;;;;8.95;3.67;;;;;;;23.37;45.35;101384.91;5052476;28;20044;-81
2022/06/21 05:56:34;;;;;;;8.35;3.83;;;;;;;23.31;45.34;101392.81;5052377;28;20025;-84
2022/06/21 05:59:11;;;;;;;10.57;4.20;;;;;;;23.34;45.61;101388.44;5052177;28;20025;-81
2022/06/21 06:02:03;;;;;;;8.07;3.80;;;;;;;23.25;45.93;101395.13;5052057;28;20390;-82
2022/06/21 06:04:47;;;;;;;8.27;4.20;;;;;;;23.34;46.01;101392.03;5052817;28;20490;-81
2022/06/21 06:07:31;;;;;;;8.65;4.60;;;;;;;23.36;45.97;101392.47;5052077;28;20048;-83
2022/06/21 06:10:00;;;;;;;7.55;3.80;;;;;;;23.37;46.15;101387.69;5051935;28;20025;-82
2022/06/21 06:12:31;;;;;;;8.75;4.15;;;;;;;23.46;45.69;101380.59;5051936;28;20025;-81
2022/06/21 06:15:02;;;;;;;12.95;4.22;;;;;;;23.47;46.08;101395.34;5051834;28;20116;-81
2022/06/21 06:17:32;;;;;;;10.32;4.22;;;;;;;23.50;46.37;101395.38;5053065;28;20025;-81
2022/06/21 06:20:30;;;;;;;12.40;5.22;;;;;;;23.53;46.16;101394.59;5052958;28;20029;-81
2022/06/21 06:22:58;;;;;;;11.23;4.55;;;;;;;23.62;45.67;101391.50;5048564;28;20487;-81
2022/06/21 06:26:05;;;;;;;11.27;5.63;;;;;;;23.56;46.73;101395.00;5052704;28;20036;-82
2022/06/21 06:28:53;;;;;;;7.90;4.30;;;;;;;23.68;46.30;101389.97;5033073;28;20044;-85
2022/06/21 06:31:42;;;;;;;9.57;4.82;;;;;;;23.62;46.51;101387.91;5053683;28;20071;-87
2022/06/21 06:34:12;;;;;;;12.65;5.82;;;;;;;23.67;46.49;101382.78;5053043;28;20033;-82
2022/06/21 06:36:47;;;;;;;8.00;4.68;;;;;;;23.76;46.56;101377.66;5052081;28;20040;-83
2022/06/21 06:39:30;;;;;;;12.50;4.65;;;;;;;23.84;46.51;101378.53;5051846;28;20028;-82
2022/06/21 06:42:00;;;;;;;15.20;5.75;;;;;;;24.05;45.74;101378.66;5051752;28;20505;-84
2022/06/21 06:44:28;;;;;;;10.90;4.35;;;;;;;24.15;45.60;101379.91;5051131;28;20107;-83
2022/06/21 06:46:58;;;;;;;15.15;5.47;;;;;;;24.25;45.52;101376.34;5068252;28;20107;-82
2022/06/21 06:49:50;;;;;;;9.52;4.70;;;;;;;23.99;45.88;101379.41;5052771;28;20017;-80
2022/06/21 06:52:28;;;;;;;12.73;5.45;;;;;;;24.06;46.09;101383.03;5042308;28;20090;-81
2022/06/21 06:55:13;;;;;;;20.02;6.40;;;;;;;24.06;45.53;101379.47;5051354;28;20032;-82
2022/06/21 06:57:49;;;;;;;9.43;4.85;;;;;;;24.17;45.70;101377.50;5052738;28;20037;-84
2022/06/21 07:00:22;;;;;;;9.95;4.90;;;;;;;24.19;45.39;101377.16;5054527;28;20029;-85
2022/06/21 07:02:53;;;;;;;12.88;4.53;;;;;;;24.32;45.43;101373.63;5055593;28;20491;-81
2022/06/21 07:05:44;;;;;;;9.57;4.60;;;;;;;24.35;45.40;101377.66;5055381;28;20484;-81
2022/06/21 07:08:24;;;;;;;17.42;7.03;;;;;;;24.45;45.15;101373.31;5055308;28;20091;-82
2022/06/21 07:10:53;;;;;;;12.13;7.03;;;;;;;24.54;44.99;101377.31;5065321;28;20029;-84
2022/06/21 07:13:19;;;;;;;17.35;8.68;;;;;;;24.66;44.80;101375.38;5075951;28;20025;-81
2022/06/21 07:15:48;;;;;;;11.63;7.53;;;;;;;24.67;44.97;101372.19;5076036;28;20033;-82
2022/06/21 07:18:29;;;;;;;14.15;7.40;;;;;;;24.89;44.60;101371.06;5074784;28;20138;-82
2022/06/21 07:20:56;;;;;;;15.05;8.65;;;;;;;24.95;45.05;101334.34;5071754;28;20103;-81
2022/06/21 07:23:26;;;;;;;14.50;8.40;;;;;;;25.11;44.02;101373.94;5057411;28;20471;-82
2022/06/21 07:26:00;;;;;;;14.73;7.78;;;;;;;25.06;43.99;101374.31;5058786;28;20028;-82
2022/06/21 07:28:39;;;;;;;14.88;8.15;;;;;;;24.81;43.90;101383.41;5060080;28;20099;-83
2022/06/21 07:31:17;;;;;;;13.73;7.28;;;;;;;24.99;43.93;101385.44;5058390;28;20025;-83
2022/06/21 07:33:48;;;;;;;16.50;9.75;;;;;;;25.14;43.31;101378.72;5060077;28;20033;-82
2022/06/21 07:36:31;;;;;;;18.60;9.40;;;;;;;25.21;43.44;101375.94;5059662;28;20023;-82
2022/06/21 07:39:13;;;;;;;11.15;7.63;;;;;;;25.12;43.27;101383.91;5058913;28;20056;-83
2022/06/21 07:41:45;;;;;;;15.40;8.10;;;;;;;25.34;42.82;101367.94;5060477;28;20044;-82
2022/06/21 07:44:34;;;;;;;9.65;6.68;;;;;;;25.34;42.88;101371.53;5060063;28;20042;-82
2022/06/21 07:47:05;;;;;;;14.55;7.03;;;;;;;25.44;42.32;101367.16;5059332;28;20051;-82
2022/06/21 07:49:53;;;;;;;10.82;6.22;;;;;;;25.38;42.70;101366.75;5060593;28;20032;-83
2022/06/21 07:52:28;;;;;;;11.43;6.50;;;;;;;25.32;42.53;101364.75;5059173;28;20467;-83
2022/06/21 07:54:58;;;;;;;14.73;7.90;;;;;;;25.43;42.21;101359.97;5058730;28;20092;-82
2022/06/21 07:57:48;;;;;;;10.13;6.07;;;;;;;25.38;42.45;101357.53;5058128;28;20509;-83
2022/06/21 08:00:18;;;;;;;15.05;7.72;;;;;;;25.41;42.20;101357.56;5058459;28;20074;-82
2022/06/21 08:08:37;;;;;;;7.38;2.25;;;;;;;25.55;42.08;101364.38;5059507;28;20511;-81
2022/06/21 08:11:07;;;;;;;8.68;2.47;;;;;;;25.82;41.78;101362.75;5057428;28;20020;-82
2022/06/21 08:13:32;;;;;;;3.78;1.83;;;;;;;25.89;41.92;101359.13;5057666;28;20544;-81
2022/06/21 08:16:05;;;;;;;11.80;3.25;;;;;;;26.08;41.53;101349.50;5058144;28;20025;-82
2022/06/21 08:18:53;;;;;;;8.63;1.90;;;;;;;26.06;41.55;101357.50;5060595;28;20016;-82
2022/06/21 08:21:29;;;;;;;9.18;2.22;;;;;;;26.27;41.14;101351.81;5075183;28;20467;-81
2022/06/21 08:24:14;;;;;;;8.35;2.58;;;;;;;26.56;41.12;101349.72;5069619;28;20028;-82
2022/06/21 08:26:51;;;;;;;8.13;2.13;;;;;;;26.66;40.67;101350.88;5059109;28;20024;-82
2022/06/21 08:29:28;;;;;;;5.28;2.03;;;;;;;26.69;40.61;101352.88;5057358;28;20031;-82
2022/06/21 08:32:03;;;;;;;2.67;1.40;;;;;;;26.83;40.37;101347.97;5059044;28;20463;-81
2022/06/21 08:34:33;;;;;;;10.50;3.45;;;;;;;27.04;40.16;101343.44;5059182;28;20112;-83
2022/06/21 08:37:08;;;;;;;8.27;1.60;;;;;;;27.00;40.13;101346.25;5058507;28;20094;-82
2022/06/21 08:39:52;;;;;;;5.40;2.42;;;;;;;26.68;40.47;101340.06;5068822;28;20059;-82
2022/06/21 08:42:48;;;;;;;4.40;1.88;;;;;;;26.75;40.23;101346.44;5073537;28;20178;-80
2022/06/21 08:45:49;;;;;;;7.05;1.25;;;;;;;26.87;39.96;101349.94;5073216;28;20456;-81
2022/06/21 08:48:33;;;;;;;5.75;1.73;;;;;;;27.24;39.34;101346.53;5058399;28;20450;-81
2022/06/21 08:51:38;;;;;;;8.20;2.78;;;;;;;27.27;39.84;101348.47;5073320;28;20047;-81
2022/06/21 08:54:46;;;;;;;3.65;2.13;;;;;;;27.63;38.69;101346.97;5073448;28;20375;-81
2022/06/21 08:57:59;;;;;;;7.30;2.60;;;;;;;27.67;38.88;101346.97;5074123;28;20043;-81
2022/06/21 09:00:50;;;;;;;1.90;0.88;;;;;;;27.93;38.26;101340.66;5015419;28;20022;-81
2022/06/21 09:03:36;;;;;;;4.47;1.90;;;;;;;28.07;37.96;101339.72;5015337;28;20108;-81
2022/06/21 09:06:04;;;;;;;2.45;1.05;;;;;;;28.26;38.04;101346.69;5059671;28;20041;-81
2022/06/21 09:09:00;;;;;;;2.25;1.08;;;;;;;28.04;37.84;101342.59;5073282;28;20086;-82
2022/06/21 09:11:34;;;;;;;1.25;0.70;;;;;;;28.19;37.60;101336.38;5074242;28;20024;-82
2022/06/21 09:14:11;;;;;;;2.05;1.27;;;;;;;28.16;37.49;101342.03;5074138;28;20040;-83
2022/06/21 09:16:59;;;;;;;3.78;1.30;;;;;;;28.25;37.46;101341.50;5073967;28;20032;-82
2022/06/21 09:20:00;;;;;;;1.02;0.70;;;;;;;28.28;37.41;101335.06;5073789;28;20031;-81
2022/06/21 09:22:57;;;;;;;4.22;1.15;;;;;;;28.57;37.09;101341.94;5072583;28;20033;-82
2022/06/21 09:25:43;;;;;;;2.83;0.90;;;;;;;28.70;37.11;101337.31;5072474;28;20536;-82
2022/06/21 09:28:22;;;;;;;5.15;1.33;;;;;;;28.80;37.01;101346.03;5072648;28;20090;-82
2022/06/21 09:31:10;;;;;;;1.88;0.80;;;;;;;28.77;36.56;101344.06;5072523;28;20070;-82
2022/06/21 09:33:49;;;;;;;4.63;1.50;;;;;;;28.69;36.74;101346.97;5062990;28;20029;-82
2022/06/21 09:36:33;;;;;;;2.58;0.60;;;;;;;28.64;36.87;101350.28;5072424;28;20556;-82
2022/06/21 09:39:13;;;;;;;10.73;2.40;;;;;;;28.56;36.91;101347.97;5072734;28;20082;-82
2022/06/21 09:41:57;;;;;;;2.85;0.50;;;;;;;28.69;36.58;101349.78;5072395;28;20427;-82
2022/06/21 09:44:31;;;;;;;0.30;0.30;;;;;;;28.91;36.37;101355.13;5071948;28;20080;-82
2022/06/21 09:47:18;;;;;;;0.65;0.43;;;;;;;29.21;35.67;101346.63;5073637;28;20048;-82
2022/06/21 09:49:52;;;;;;;2.00;0.40;;;;;;;29.30;35.76;101344.06;5072112;28;20028;-82
2022/06/21 09:52:53;;;;;;;2.85;0.60;;;;;;;29.05;35.51;101348.50;5073447;28;20024;-82
2022/06/21 09:55:27;;;;;;;3.47;0.90;;;;;;;29.21;36.14;101355.06;5072060;28;20020;-82
2022/06/21 09:58:11;;;;;;;2.97;0.80;;;;;;;29.11;35.84;101361.66;5073393;28;20047;-83
2022/06/21 10:00:45;;;;;;;0.35;0.32;;;;;;;29.03;36.10;101357.38;5073225;28;20032;-83
2022/06/21 10:03:26;;;;;;;2.47;0.60;;;;;;;28.95;36.12;101356.69;5072078;28;20024;-82
2022/06/21 10:06:20;;;;;;;3.17;1.08;;;;;;;28.79;36.37;101361.28;5071920;28;20064;-83
2022/06/21 10:08:48;;;;;;;1.40;0.60;;;;;;;28.80;36.30;101366.53;5073023;28;20047;-82
2022/06/21 10:11:29;;;;;;;1.35;0.77;;;;;;;28.64;36.42;101363.50;5071724;28;20024;-82
2022/06/21 10:14:15;;;;;;;2.22;0.80;;;;;;;28.58;36.48;101365.22;5071950;28;20444;-82
2022/06/21 10:17:11;;;;;;;7.25;1.80;;;;;;;28.15;37.50;101372.13;5071731;28;20502;-83
2022/06/21 10:20:24;;;;;;;7.10;2.03;;;;;;;27.94;37.74;101375.16;5071850;28;20439;-81
2022/06/21 10:23:13;;;;;;;3.97;1.88;;;;;;;27.71;38.35;101366.56;5072809;28;20029;-81
2022/06/21 10:26:12;;;;;;;10.23;3.33;;;;;;;27.72;38.22;101365.38;5042755;28;20043;-81
2022/06/21 10:28:44;;;;;;;6.60;2.78;;;;;;;27.75;37.82;101365.34;5071547;28;20029;-81
2022/06/21 10:31:33;;;;;;;6.20;2.50;;;;;;;27.72;37.80;101370.97;5071524;28;20036;-82
2022/06/21 10:34:18;;;;;;;5.13;2.10;;;;;;;27.68;37.97;101370.22;5071674;28;20032;-81
2022/06/21 10:37:10;;;;;;;9.30;2.92;;;;;;;27.72;37.83;101370.97;5072800;28;20040;-81
2022/06/21 10:40:09;;;;;;;6.03;2.28;;;;;;;27.83;37.77;101375.28;5070909;28;20077;-81
2022/06/21 10:43:11;;;;;;;4.28;2.42;;;;;;;27.83;37.47;101371.69;5071443;28;20024;-81
2022/06/21 10:45:54;;;;;;;8.00;2.88;;;;;;;27.85;37.53;101369.25;5071449;28;20468;-82
2022/06/21 10:48:52;;;;;;;7.80;2.80;;;;;;;27.75;37.90;101370.97;5072803;28;20029;-82
2022/06/21 10:51:45;;;;;;;9.82;3.63;;;;;;;27.73;38.01;101373.34;5071637;28;20384;-81
2022/06/21 10:54:16;;;;;;;8.63;3.65;;;;;;;27.73;37.85;101372.56;5072878;28;20029;-82
2022/06/21 10:57:15;;;;;;;4.50;2.65;;;;;;;27.67;38.28;101371.41;5071497;28;20067;-82
2022/06/21 11:03:04;;;;;;;5.57;3.47;;;;;;;27.63;38.11;101365.81;5072848;28;20031;-83
2022/06/21 11:05:42;;;;;;;9.93;3.53;;;;;;;27.60;38.15;101375.88;5071161;28;20028;-81
2022/06/21 11:08:27;;;;;;;5.30;3.03;;;;;;;27.66;37.90;101376.22;5072870;28;20032;-82
2022/06/21 11:11:17;;;;;;;3.88;2.20;;;;;;;27.48;38.46;101373.56;5072694;28;20226;-85
2022/06/21 11:14:08;;;;;;;7.97;2.88;;;;;;;27.25;38.68;101365.75;5071369;28;20036;-84
2022/06/21 11:17:23;;;;;;;8.13;3.20;;;;;;;26.96;39.45;101381.13;5072565;28;20146;-82
2022/06/21 11:20:20;;;;;;;8.48;3.50;;;;;;;27.02;39.19;101385.91;5071582;28;20051;-83
2022/06/21 11:22:47;;;;;;;5.70;2.97;;;;;;;27.08;39.21;101389.91;5072460;28;20063;-84
2022/06/21 11:25:40;;;;;;;7.47;3.13;;;;;;;26.94;39.59;101384.34;5071350;28;20441;-82
2022/06/21 11:28:31;;;;;;;9.98;3.97;;;;;;;26.96;39.41;101386.75;5072740;28;20028;-82
2022/06/21 11:31:13;;;;;;;6.15;3.08;;;;;;;26.91;39.37;101390.78;5070961;28;20032;-82
2022/06/21 11:34:11;;;;;;;5.90;3.70;;;;;;;27.02;39.21;101390.72;5071199;28;20123;-81
2022/06/21 11:36:39;;;;;;;4.82;3.30;;;;;;;27.04;39.28;101393.94;5070885;28;20036;-81
2022/06/21 11:39:31;;;;;;;6.43;3.58;;;;;;;27.06;39.36;101397.16;5070847;28;20482;-82
2022/06/21 11:42:22;;;;;;;4.47;3.08;;;;;;;26.98;39.57;101390.75;5072147;28;20071;-82
2022/06/21 11:45:07;;;;;;;5.78;3.00;;;;;;;27.10;39.31;101395.91;5070609;28;20048;-82
2022/06/21 11:47:55;;;;;;;7.80;3.90;;;;;;;27.17;38.97;101400.66;5074090;28;20037;-81
2022/06/21 11:50:23;;;;;;;7.25;3.83;;;;;;;27.28;39.15;101400.56;5074703;28;20145;-81
2022/06/21 11:53:16;;;;;;;5.53;2.38;;;;;;;27.15;39.44;101405.09;5074715;28;20028;-81
2022/06/21 11:56:08;;;;;;;5.55;2.38;;;;;;;27.30;38.62;101406.59;5075654;28;20028;-81
2022/06/21 11:58:45;;;;;;;3.88;2.03;;;;;;;27.34;38.80;101404.53;5075792;28;20028;-80
2022/06/21 12:01:25;;;;;;;4.18;2.42;;;;;;;27.23;38.93;101412.25;5075761;28;20475;-81
2022/06/21 12:03:59;;;;;;;8.27;3.20;;;;;;;27.28;38.79;101409.00;5075681;28;20028;-81
2022/06/21 12:06:34;;;;;;;7.70;2.53;;;;;;;27.25;38.93;101404.22;5075624;28;20025;-80
2022/06/21 12:09:23;;;;;;;6.97;2.85;;;;;;;27.19;39.06;101405.84;5074429;28;20037;-81
2022/06/21 12:12:18;;;;;;;5.88;2.70;;;;;;;27.24;39.11;101408.22;5074192;28;20437;-80
2022/06/21 12:15:42;;;;;;;5.97;2.88;;;;;;;27.19;39.03;101408.66;5075329;28;20044;-82
2022/06/21 12:18:18;;;;;;;9.52;3.00;;;;;;;27.15;39.09;101405.91;5013327;28;20033;-82
2022/06/21 12:21:01;;;;;;;7.25;3.22;;;;;;;27.18;38.85;101401.47;4993058;28;20029;-82
2022/06/21 12:23:36;;;;;;;5.75;2.88;;;;;;;27.23;39.12;101399.03;5053285;28;20043;-82
2022/06/21 12:26:04;;;;;;;8.13;3.45;;;;;;;27.20;39.05;101411.03;5075257;28;20016;-82